Maida, North Dakota
Current Conditions -  °F | °C
As of 9:55 PM on Sunday 23 Nov 2014 (Local Time) from KD55 Reporting Station
Overcast Overcast  
Wind Chill: -7°   Ceiling: 1700
Heat Index: 10°   Visibility: 10mi
Dew Point:   Wind: 17mph
Humidity: 79%   Direction: 340°NNW
Pressure: 29.6"   Gusts: 25mph
Location:  49°N, 98.37°W
Report Text: KD55 240355Z AUTO 34015G22KT 10SM FEW002 SCT009 OVC017 M12/M15 A2960 RMK AO2
Loading
Personal Weather Stations






























Interactive Weather Map New forecast layout! Learn more

10-Day Weather Forecast

Advertisements
Track Severe Weather on mobile